createdAt,value
2018-07-13T00:03:25.016Z,99.90
2018-07-13T00:08:19.588Z,99.90
2018-07-13T00:13:14.236Z,99.90
2018-07-13T00:18:08.808Z,99.90
2018-07-13T00:23:03.388Z,99.90
2018-07-13T00:27:57.929Z,99.90
2018-07-13T00:32:52.487Z,99.90
2018-07-13T00:37:47.123Z,99.90
2018-07-13T00:42:41.672Z,99.90
2018-07-13T00:47:36.231Z,99.90
2018-07-13T00:52:30.857Z,99.90
2018-07-13T00:57:25.404Z,99.90
2018-07-13T01:02:20.120Z,99.90
2018-07-13T01:07:14.737Z,99.90
2018-07-13T01:12:09.296Z,99.90
2018-07-13T01:17:03.879Z,99.90
2018-07-13T01:21:58.484Z,99.90
2018-07-13T01:26:53.051Z,99.90
2018-07-13T01:31:47.717Z,99.90
2018-07-13T01:36:42.275Z,99.90
2018-07-13T01:41:36.881Z,99.90
2018-07-13T01:46:31.591Z,99.90
2018-07-13T01:51:26.151Z,99.90
2018-07-13T01:56:20.723Z,99.90
2018-07-13T02:01:15.799Z,99.90
2018-07-13T02:06:10.456Z,99.90
2018-07-13T02:11:05.069Z,99.90
2018-07-13T02:15:59.627Z,99.90
2018-07-13T02:20:54.221Z,99.90
2018-07-13T02:25:48.811Z,99.90
2018-07-13T02:30:44.409Z,99.90
2018-07-13T02:35:39.001Z,99.90
2018-07-13T02:40:33.600Z,99.90
2018-07-13T02:45:28.284Z,99.90
2018-07-13T02:50:22.873Z,99.90
2018-07-13T02:55:17.500Z,99.90
2018-07-13T03:00:12.180Z,99.90
2018-07-13T03:05:06.899Z,99.90
2018-07-13T03:10:02.536Z,99.90
2018-07-13T03:14:57.255Z,99.90
2018-07-13T03:19:51.858Z,99.90
2018-07-13T03:24:46.518Z,99.90
2018-07-13T03:29:41.132Z,99.90
2018-07-13T03:34:35.697Z,99.90
2018-07-13T03:39:30.325Z,99.90
2018-07-13T03:44:24.908Z,99.90
2018-07-13T03:49:19.562Z,99.90
2018-07-13T03:54:14.272Z,99.90
2018-07-13T03:59:09.231Z,99.90
2018-07-13T04:04:04.272Z,99.90
2018-07-13T04:08:58.923Z,99.90
2018-07-13T04:13:53.548Z,99.90
2018-07-13T04:18:48.161Z,99.90
2018-07-13T04:23:42.867Z,99.90
2018-07-13T04:28:37.916Z,99.90
2018-07-13T04:33:32.476Z,99.90
2018-07-13T04:38:27.116Z,99.90
2018-07-13T04:43:21.780Z,99.90
2018-07-13T04:48:16.557Z,99.90
2018-07-13T04:53:12.556Z,99.90
2018-07-13T04:58:07.312Z,99.90
2018-07-13T05:03:02.160Z,99.90
2018-07-13T05:07:57.188Z,99.90
2018-07-13T05:12:51.896Z,99.90
2018-07-13T05:17:46.554Z,99.90
2018-07-13T05:22:41.337Z,99.90
2018-07-13T05:27:36.068Z,99.90
2018-07-13T05:32:31.731Z,99.90
2018-07-13T05:37:27.030Z,99.90
2018-07-13T05:42:22.697Z,99.90
2018-07-13T05:47:17.463Z,99.90
2018-07-13T05:52:12.491Z,99.90
2018-07-13T05:57:07.406Z,99.90
2018-07-13T06:02:02.261Z,99.90
2018-07-13T06:06:56.955Z,99.90
2018-07-13T06:11:51.816Z,99.90
2018-07-13T06:16:46.392Z,99.90
2018-07-13T06:21:40.976Z,99.90
2018-07-13T06:26:35.712Z,99.90
2018-07-13T06:31:30.551Z,99.90
2018-07-13T06:36:25.268Z,99.90
2018-07-13T06:41:20.032Z,99.90
2018-07-13T06:46:14.865Z,99.90
2018-07-13T06:51:09.535Z,99.90
2018-07-13T06:56:04.340Z,99.90
2018-07-13T07:01:03.837Z,99.90
2018-07-13T07:06:05.471Z,99.90
2018-07-13T07:11:00.447Z,99.90
2018-07-13T07:15:55.270Z,99.90
2018-07-13T07:20:49.873Z,99.90
2018-07-13T07:25:44.632Z,99.90
2018-07-13T07:30:39.326Z,99.90
2018-07-13T07:35:34.011Z,99.90
2018-07-13T07:40:28.760Z,99.90
2018-07-13T07:45:23.472Z,99.90
2018-07-13T07:50:18.312Z,99.80
2018-07-13T07:55:12.988Z,99.90
2018-07-13T08:00:07.703Z,99.20
2018-07-13T08:05:02.320Z,99.90
2018-07-13T08:09:56.933Z,99.30
2018-07-13T08:14:51.565Z,98.40
2018-07-13T08:19:46.179Z,97.70
2018-07-13T08:24:41.314Z,97.20
2018-07-13T08:29:40.580Z,97.60
2018-07-13T08:34:35.210Z,95.70
2018-07-13T08:39:29.949Z,93.10
2018-07-13T08:49:19.370Z,94.50
2018-07-13T08:54:14.072Z,92.90
2018-07-13T08:59:08.887Z,93.20
2018-07-13T09:04:03.692Z,92.80
2018-07-13T09:08:58.296Z,91.40
2018-07-13T09:13:52.971Z,91.50
2018-07-13T09:18:47.775Z,91.40
2018-07-13T09:23:42.600Z,88.80
2018-07-13T09:28:37.240Z,91.30
2018-07-13T09:33:31.947Z,90.00
2018-07-13T09:38:26.641Z,86.40
2018-07-13T09:43:21.260Z,85.30
2018-07-13T09:48:16.008Z,83.90
2018-07-13T09:53:10.749Z,87.00
2018-07-13T09:58:05.500Z,83.60
2018-07-13T10:03:00.234Z,86.00
2018-07-13T10:07:55.028Z,82.20
2018-07-13T10:12:49.740Z,80.70
2018-07-13T10:17:44.387Z,80.20
2018-07-13T10:22:39.257Z,80.00
2018-07-13T10:27:38.007Z,79.40
2018-07-13T10:32:33.514Z,77.20
2018-07-13T10:37:30.140Z,72.80
2018-07-13T10:42:24.796Z,69.10
2018-07-13T10:47:19.440Z,71.30
2018-07-13T10:52:14.125Z,66.90
2018-07-13T10:57:08.910Z,69.30
2018-07-13T11:02:03.653Z,65.60
2018-07-13T11:06:58.323Z,66.20
2018-07-13T11:11:52.932Z,66.20
2018-07-13T11:16:47.521Z,63.60
2018-07-13T11:26:36.550Z,63.40
2018-07-13T11:31:31.163Z,63.40
2018-07-13T11:41:20.284Z,61.80
2018-07-13T11:46:14.999Z,63.90
2018-07-13T11:51:09.799Z,62.10
2018-07-13T11:56:04.451Z,63.30
2018-07-13T12:00:59.184Z,60.20
2018-07-13T12:05:53.796Z,63.10
2018-07-13T12:10:48.443Z,60.00
2018-07-13T12:15:43.142Z,59.90
2018-07-13T12:20:37.780Z,61.70
2018-07-13T12:25:32.410Z,60.70
2018-07-13T12:30:27.120Z,59.40
2018-07-13T12:35:21.784Z,60.40
2018-07-13T12:40:16.512Z,61.40
2018-07-13T12:45:11.165Z,63.20
2018-07-13T12:50:05.845Z,62.90
2018-07-13T12:55:00.440Z,53.80
2018-07-13T12:59:55.047Z,59.40
2018-07-13T13:04:49.732Z,54.10
2018-07-13T13:09:44.414Z,52.90
2018-07-13T13:14:39.027Z,52.80
2018-07-13T13:19:34.255Z,52.60
2018-07-13T13:24:28.908Z,55.00
2018-07-13T13:29:23.556Z,55.50
2018-07-13T13:34:18.310Z,55.90
2018-07-13T13:39:12.948Z,56.70
2018-07-13T13:44:07.677Z,57.80
2018-07-13T13:49:02.296Z,59.70
2018-07-13T13:53:56.952Z,57.10
2018-07-13T13:58:51.567Z,58.80
2018-07-13T14:03:46.205Z,56.10
2018-07-13T14:08:40.894Z,58.40
2018-07-13T14:13:35.519Z,59.20
2018-07-13T14:18:30.164Z,60.00
2018-07-13T14:23:24.833Z,55.90
2018-07-13T14:28:19.596Z,57.60
2018-07-13T14:33:14.300Z,59.90
2018-07-13T14:43:03.232Z,57.80
2018-07-13T14:47:57.850Z,59.40
2018-07-13T14:52:52.548Z,57.10
2018-07-13T14:57:47.762Z,58.90
2018-07-13T15:02:42.484Z,60.60
2018-07-13T15:07:37.115Z,56.70
2018-07-13T15:12:31.741Z,59.60
2018-07-13T15:17:26.426Z,59.50
2018-07-13T15:22:21.176Z,58.60
2018-07-13T15:27:15.765Z,56.40
2018-07-13T15:32:10.588Z,58.40
2018-07-13T15:37:05.295Z,61.20
2018-07-13T15:42:00.199Z,56.90
2018-07-13T15:46:55.043Z,54.70
2018-07-13T15:51:49.807Z,54.30
2018-07-13T15:56:44.403Z,55.90
2018-07-13T16:01:39.111Z,54.80
2018-07-13T16:06:33.805Z,55.60
2018-07-13T16:11:28.451Z,56.00
2018-07-13T16:16:23.121Z,55.40
2018-07-13T16:21:17.747Z,56.10
2018-07-13T16:26:12.475Z,59.30
2018-07-13T16:31:07.431Z,60.90
2018-07-13T16:36:02.927Z,56.50
2018-07-13T16:40:57.764Z,57.60
2018-07-13T16:45:52.511Z,62.20
2018-07-13T16:50:47.206Z,59.20
2018-07-13T16:55:41.873Z,58.20
2018-07-13T17:00:36.460Z,57.10
2018-07-13T17:05:31.063Z,59.90
2018-07-13T17:10:25.792Z,60.80
2018-07-13T17:15:21.296Z,65.50
2018-07-13T17:20:16.015Z,63.90
2018-07-13T17:25:10.633Z,62.00
2018-07-13T17:30:05.987Z,60.10
2018-07-13T17:35:00.713Z,62.10
2018-07-13T17:39:55.259Z,62.90
2018-07-13T17:44:49.907Z,62.90
2018-07-13T17:49:44.513Z,61.30
2018-07-13T17:54:39.111Z,62.70
2018-07-13T17:59:33.796Z,64.50
2018-07-13T18:04:28.447Z,64.80
2018-07-13T18:09:23.046Z,65.90
2018-07-13T18:14:17.777Z,68.30
2018-07-13T18:19:12.423Z,70.10
2018-07-13T18:24:07.123Z,70.20
2018-07-13T18:29:01.755Z,70.30
2018-07-13T18:33:56.392Z,72.30
2018-07-13T18:43:45.521Z,65.40
2018-07-13T18:48:40.193Z,68.30
2018-07-13T18:53:35.271Z,70.20
2018-07-13T18:58:29.935Z,71.20
2018-07-13T19:03:25.368Z,72.00
2018-07-13T19:08:20.016Z,71.60
2018-07-13T19:13:14.647Z,71.70
2018-07-13T19:18:09.303Z,72.30
2018-07-13T19:23:03.955Z,74.10
2018-07-13T19:27:58.653Z,74.40
2018-07-13T19:32:53.727Z,75.20
2018-07-13T19:37:48.379Z,75.70
2018-07-13T19:42:43.008Z,77.20
2018-07-13T19:47:37.594Z,78.90
2018-07-13T19:52:32.340Z,79.50
2018-07-13T19:57:27.157Z,79.80
2018-07-13T20:02:21.673Z,81.20
2018-07-13T20:07:16.273Z,81.30
2018-07-13T20:12:10.968Z,82.20
2018-07-13T20:17:05.725Z,83.70
2018-07-13T20:22:00.328Z,85.30
2018-07-13T20:26:54.932Z,86.60
2018-07-13T20:31:49.604Z,85.30
2018-07-13T20:36:54.268Z,85.30
2018-07-13T20:41:50.293Z,86.10
2018-07-13T20:46:44.948Z,86.90
2018-07-13T20:51:39.575Z,86.40
2018-07-13T20:56:38.304Z,85.60
2018-07-13T21:01:34.792Z,85.10
2018-07-13T21:06:29.387Z,86.80
2018-07-13T21:11:24.000Z,88.80
2018-07-13T21:16:18.653Z,88.40
2018-07-13T21:21:13.278Z,90.00
2018-07-13T21:26:08.022Z,88.10
2018-07-13T21:31:02.631Z,87.20
2018-07-13T21:35:57.247Z,87.70
2018-07-13T21:40:51.923Z,88.60
2018-07-13T21:45:46.556Z,90.30
2018-07-13T21:50:41.561Z,88.30
2018-07-13T21:55:36.208Z,89.50
2018-07-13T22:05:25.152Z,90.50
2018-07-13T22:10:19.819Z,90.30
2018-07-13T22:15:14.396Z,90.80
2018-07-13T22:20:09.036Z,91.60
2018-07-13T22:25:03.621Z,91.40
2018-07-13T22:29:58.288Z,91.40
2018-07-13T22:34:52.934Z,91.50
2018-07-13T22:39:47.513Z,92.60
2018-07-13T22:44:42.206Z,93.20
2018-07-13T22:49:36.791Z,93.10
2018-07-13T22:54:31.443Z,92.60
2018-07-13T22:59:26.004Z,92.70
2018-07-13T23:04:20.680Z,93.00
2018-07-13T23:09:15.327Z,93.10
2018-07-13T23:19:04.243Z,93.70
2018-07-13T23:23:59.013Z,94.20
2018-07-13T23:28:53.564Z,94.00
2018-07-13T23:33:48.199Z,95.00
2018-07-13T23:38:43.044Z,93.90
2018-07-13T23:43:37.610Z,93.90
2018-07-13T23:48:32.239Z,95.20
2018-07-13T23:53:26.911Z,97.40
2018-07-13T23:58:21.719Z,99.90
